Time;durP1;ratioP1;P1;durP2;ratioP2;P2;SDS_P1;SDS_P2;PMS_P1;PMS_P2;Temp;Humidity;BMP_temperature;BMP_pressure;BME280_temperature;BME280_humidity;BME280_pressure;Samples;Min_cycle;Max_cycle;Signal;HPM_P1;HPM_P2
2022/03/20 00:00:35;;;;;;;32.47;21.47;;;;;;;0.99;75.22;96583.63;6073398;23;20157;-80
2022/03/20 00:03:06;;;;;;;32.47;21.73;;;;;;;0.98;75.27;96582.81;6097520;23;20156;-78
2022/03/20 00:05:34;;;;;;;29.03;20.60;;;;;;;0.88;75.54;96575.56;6097307;23;20251;-79
2022/03/20 00:08:00;;;;;;;29.70;20.57;;;;;;;0.89;75.39;96572.13;6096643;23;20180;-79
2022/03/20 00:10:25;;;;;;;27.20;20.63;;;;;;;0.85;75.51;96572.22;6121407;23;20219;-79
2022/03/20 00:12:50;;;;;;;31.50;22.70;;;;;;;0.97;75.28;96575.16;6072351;23;20184;-79
2022/03/20 00:15:16;;;;;;;28.93;21.17;;;;;;;1.13;74.37;96569.34;6098491;23;20186;-80
2022/03/20 00:17:41;;;;;;;32.23;22.20;;;;;;;1.11;73.69;96573.69;6096570;23;20157;-80
2022/03/20 00:20:07;;;;;;;32.10;21.67;;;;;;;1.15;73.80;96569.31;6072489;23;20160;-79
2022/03/20 00:22:34;;;;;;;31.87;21.77;;;;;;;1.12;73.84;96570.25;6095724;23;20157;-79
2022/03/20 00:24:59;;;;;;;30.20;20.80;;;;;;;1.07;73.57;96564.50;6096796;23;20177;-78
2022/03/20 00:27:24;;;;;;;30.67;21.10;;;;;;;1.20;73.11;96561.41;6072173;23;20184;-79
2022/03/20 00:29:50;;;;;;;29.80;19.80;;;;;;;1.20;72.17;96564.81;6072488;23;20550;-78
2022/03/20 00:32:16;;;;;;;30.10;20.40;;;;;;;1.26;71.40;96559.44;6119584;23;20156;-78
2022/03/20 00:34:41;;;;;;;27.23;19.67;;;;;;;1.24;70.70;96551.00;6072580;23;20181;-79
2022/03/20 00:37:07;;;;;;;26.47;18.70;;;;;;;1.24;70.45;96550.16;6119595;23;20149;-78
2022/03/20 00:39:33;;;;;;;26.60;19.00;;;;;;;1.26;70.39;96554.31;6096780;23;20160;-79
2022/03/20 00:41:59;;;;;;;24.47;18.10;;;;;;;1.19;69.69;96545.22;6120390;23;20215;-77
2022/03/20 00:44:24;;;;;;;27.30;19.07;;;;;;;1.13;70.24;96551.44;6072233;23;20183;-76
2022/03/20 00:46:49;;;;;;;27.37;18.60;;;;;;;1.16;69.79;96550.50;6096684;23;20189;-77
2022/03/20 00:49:15;;;;;;;23.37;18.60;;;;;;;1.17;69.69;96551.31;6096504;23;20164;-77
2022/03/20 00:51:41;;;;;;;28.50;18.97;;;;;;;1.22;69.61;96544.25;6071019;23;20168;-77
2022/03/20 00:54:06;;;;;;;27.80;18.70;;;;;;;1.19;69.67;96546.97;6096366;23;20287;-77
2022/03/20 00:56:31;;;;;;;26.87;17.80;;;;;;;1.23;69.51;96540.81;6120457;23;20192;-77
2022/03/20 00:58:57;;;;;;;26.27;19.00;;;;;;;1.25;68.90;96546.72;6096048;23;20631;-79
2022/03/20 01:01:22;;;;;;;30.87;18.73;;;;;;;1.17;69.28;96543.66;6070772;23;20171;-79
2022/03/20 01:03:47;;;;;;;24.50;18.60;;;;;;;1.19;69.37;96540.13;6071929;23;20180;-79
2022/03/20 01:06:13;;;;;;;25.70;18.23;;;;;;;1.16;69.09;96539.44;6096368;23;20164;-80
2022/03/20 01:08:38;;;;;;;24.70;17.47;;;;;;;1.19;68.99;96537.56;6096356;23;20157;-78
2022/03/20 01:11:07;;;;;;;29.20;19.00;;;;;;;1.19;68.83;96539.28;6095831;23;20160;-79
2022/03/20 01:13:34;;;;;;;25.60;18.13;;;;;;;1.21;68.28;96535.75;6095679;23;20164;-78
2022/03/20 01:15:59;;;;;;;26.50;17.57;;;;;;;1.16;68.78;96535.16;6071747;23;20160;-78
2022/03/20 01:18:25;;;;;;;25.63;17.87;;;;;;;1.19;68.24;96524.75;6095567;23;20486;-80
2022/03/20 01:20:54;;;;;;;24.80;18.77;;;;;;;1.26;68.33;96526.16;6119785;23;20216;-79
2022/03/20 01:23:21;;;;;;;23.93;17.80;;;;;;;1.20;67.92;96523.03;6071368;23;20665;-80
2022/03/20 01:25:47;;;;;;;25.90;18.03;;;;;;;1.23;67.99;96523.72;6071506;23;20274;-80
2022/03/20 01:28:12;;;;;;;27.57;18.30;;;;;;;1.21;68.02;96519.56;6095900;23;20177;-78
2022/03/20 01:30:38;;;;;;;26.47;18.70;;;;;;;1.24;67.84;96517.72;6096113;23;20171;-79
2022/03/20 01:33:03;;;;;;;25.77;17.77;;;;;;;1.25;67.93;96516.84;6071058;23;20220;-80
2022/03/20 01:35:28;;;;;;;27.20;17.80;;;;;;;1.19;67.69;96508.59;6094872;23;20183;-79
2022/03/20 01:37:53;;;;;;;26.50;18.07;;;;;;;1.20;68.07;96505.94;6095472;23;20153;-78
2022/03/20 01:40:19;;;;;;;27.33;18.33;;;;;;;1.18;67.85;96499.25;6071551;23;20634;-79
2022/03/20 01:42:44;;;;;;;31.80;18.07;;;;;;;1.19;67.60;96488.13;6094586;23;20153;-80
2022/03/20 01:45:21;;;;;;;24.20;18.00;;;;;;;1.22;67.61;96493.91;6095410;23;20200;-78
2022/03/20 01:47:49;;;;;;;28.83;18.73;;;;;;;1.19;67.60;96483.81;6071209;23;20183;-79
2022/03/20 01:50:25;;;;;;;24.20;17.20;;;;;;;1.17;67.72;96480.50;6095549;23;20159;-79
2022/03/20 01:52:52;;;;;;;25.23;18.80;;;;;;;1.19;68.05;96499.19;6070466;23;20172;-78
2022/03/20 01:55:19;;;;;;;27.63;18.53;;;;;;;1.21;68.10;96499.09;6070973;23;20669;-79
2022/03/20 01:57:45;;;;;;;25.10;18.80;;;;;;;1.21;68.40;96502.50;6095304;23;20243;-79
2022/03/20 02:00:14;;;;;;;25.60;18.23;;;;;;;1.14;68.17;96494.25;6095246;23;20156;-78
2022/03/20 02:02:39;;;;;;;25.63;18.20;;;;;;;1.19;68.39;96494.06;6094558;23;20213;-79
2022/03/20 02:05:09;;;;;;;27.83;17.30;;;;;;;1.14;68.20;96493.41;6094904;23;20172;-79
2022/03/20 02:07:35;;;;;;;25.47;18.03;;;;;;;1.12;68.00;96492.66;6071330;23;20191;-79
2022/03/20 02:10:01;;;;;;;26.97;17.87;;;;;;;1.12;68.47;96490.94;6119548;23;20160;-79
2022/03/20 02:12:28;;;;;;;23.13;17.10;;;;;;;1.11;68.32;96481.59;6069977;23;20163;-78
2022/03/20 02:14:53;;;;;;;25.10;17.60;;;;;;;1.14;68.02;96486.56;6095528;23;20255;-80
2022/03/20 02:17:18;;;;;;;28.00;19.10;;;;;;;1.00;67.97;96468.47;6071432;23;20231;-78
2022/03/20 02:19:45;;;;;;;27.10;18.57;;;;;;;1.07;68.22;96463.91;6095219;23;20256;-79
2022/03/20 02:22:11;;;;;;;30.50;18.23;;;;;;;1.04;67.95;96459.75;6070821;23;20172;-80
2022/03/20 02:24:42;;;;;;;26.93;17.50;;;;;;;1.07;67.79;96461.34;6094732;23;20238;-79
2022/03/20 02:27:16;;;;;;;25.80;17.33;;;;;;;1.06;67.81;96459.66;6094776;23;20190;-78
2022/03/20 02:29:44;;;;;;;27.77;17.43;;;;;;;1.10;66.72;96462.03;6070931;23;20158;-78
2022/03/20 02:32:12;;;;;;;24.40;17.67;;;;;;;1.09;66.82;96459.56;6069922;23;20244;-79
2022/03/20 02:34:38;;;;;;;27.57;17.93;;;;;;;1.17;66.47;96460.03;6094751;23;20186;-79
2022/03/20 02:37:04;;;;;;;29.23;18.17;;;;;;;1.21;66.55;96455.59;6068628;23;20506;-78
2022/03/20 02:39:30;;;;;;;25.23;17.07;;;;;;;1.24;65.97;96447.81;6119194;23;20155;-80
2022/03/20 02:41:57;;;;;;;25.73;16.43;;;;;;;1.20;66.42;96444.53;6093840;23;20176;-79
2022/03/20 02:44:50;;;;;;;24.87;17.63;;;;;;;1.19;66.42;96445.44;6095222;23;20185;-79
2022/03/20 02:47:20;;;;;;;27.27;17.60;;;;;;;1.20;66.53;96452.22;6094016;23;20678;-78
2022/03/20 02:49:47;;;;;;;26.87;17.30;;;;;;;1.20;66.75;96449.66;6118413;23;20602;-78
2022/03/20 02:52:13;;;;;;;24.87;18.17;;;;;;;1.20;66.83;96449.66;6093809;23;20192;-79
2022/03/20 02:54:38;;;;;;;26.17;17.40;;;;;;;1.14;67.34;96442.25;6070285;23;20207;-78
2022/03/20 02:57:08;;;;;;;27.27;17.87;;;;;;;1.16;67.38;96443.03;6070425;23;20175;-78
2022/03/20 02:59:34;;;;;;;24.70;17.70;;;;;;;1.18;66.96;96442.97;6094762;23;20666;-79
2022/03/20 03:01:59;;;;;;;27.97;18.93;;;;;;;1.15;66.85;96449.06;6070232;23;20488;-79
2022/03/20 03:04:25;;;;;;;26.77;18.33;;;;;;;1.19;66.77;96442.06;6070617;23;20187;-78
2022/03/20 03:06:50;;;;;;;23.97;17.17;;;;;;;1.21;66.70;96451.31;6094603;23;20187;-79
2022/03/20 03:11:59;;;;;;;26.30;16.87;;;;;;;1.26;66.75;96446.84;6094603;23;20233;-79
2022/03/20 03:17:08;;;;;;;26.67;17.97;;;;;;;1.33;66.74;96455.91;6096373;23;20226;-80
2022/03/20 03:19:34;;;;;;;24.77;18.13;;;;;;;1.37;66.22;96452.28;6094405;23;20160;-79
2022/03/20 03:22:01;;;;;;;24.70;18.50;;;;;;;1.35;66.21;96453.28;6069544;23;20157;-78
2022/03/20 03:24:26;;;;;;;24.07;18.23;;;;;;;1.39;66.35;96457.34;6096491;23;20183;-79
2022/03/20 03:26:51;;;;;;;26.70;18.23;;;;;;;1.35;66.65;96453.28;6072215;23;20572;-78
2022/03/20 03:29:17;;;;;;;25.60;16.93;;;;;;;1.41;66.46;96450.41;6072761;23;20156;-79
2022/03/20 03:31:42;;;;;;;28.27;18.13;;;;;;;1.42;66.61;96447.81;6071919;23;20168;-79
2022/03/20 03:36:51;;;;;;;25.07;18.33;;;;;;;1.42;66.39;96444.41;6096500;23;20191;-79
2022/03/20 03:39:19;;;;;;;27.07;17.53;;;;;;;1.51;66.38;96448.28;6096842;23;20486;-79
2022/03/20 03:41:44;;;;;;;26.30;17.47;;;;;;;1.52;66.16;96450.78;6097375;23;20157;-79
2022/03/20 03:44:09;;;;;;;29.10;18.57;;;;;;;1.54;66.70;96443.03;6071667;23;20523;-78
2022/03/20 03:46:34;;;;;;;25.70;17.83;;;;;;;1.52;66.23;96440.53;6096529;23;20187;-79
2022/03/20 03:49:00;;;;;;;27.70;17.47;;;;;;;1.59;66.39;96446.19;6096369;23;20160;-79
2022/03/20 03:51:25;;;;;;;25.93;19.00;;;;;;;1.62;66.42;96446.06;6095935;23;20247;-79
2022/03/20 03:53:51;;;;;;;28.03;18.27;;;;;;;1.61;66.16;96439.28;6072108;23;20239;-79
2022/03/20 03:56:19;;;;;;;25.57;17.47;;;;;;;1.60;65.85;96445.31;6096108;23;20561;-79
2022/03/20 03:58:44;;;;;;;27.20;18.17;;;;;;;1.58;65.94;96453.03;6120069;23;20235;-79
2022/03/20 04:01:09;;;;;;;25.77;17.97;;;;;;;1.57;66.42;96450.53;6071549;23;20199;-78
2022/03/20 04:03:35;;;;;;;27.80;18.30;;;;;;;1.51;66.58;96435.50;6071481;23;20175;-79
2022/03/20 04:06:04;;;;;;;26.67;17.60;;;;;;;1.47;66.51;96427.09;6096689;23;20184;-79
2022/03/20 04:08:29;;;;;;;27.93;19.17;;;;;;;1.42;66.97;96464.91;6097977;23;20211;-79
2022/03/20 04:10:55;;;;;;;27.43;18.63;;;;;;;1.38;66.87;96474.44;6096311;23;20599;-79
2022/03/20 04:13:20;;;;;;;29.13;18.83;;;;;;;1.36;66.99;96468.56;6095604;23;20238;-79
2022/03/20 04:15:45;;;;;;;28.03;18.70;;;;;;;1.38;67.17;96458.25;6096650;23;20218;-79
2022/03/20 04:18:12;;;;;;;26.63;17.17;;;;;;;1.38;67.09;96453.13;6120253;23;20160;-80
2022/03/20 04:20:37;;;;;;;24.90;18.40;;;;;;;1.39;67.01;96463.28;6120460;23;20140;-79
2022/03/20 04:25:47;;;;;;;24.07;17.37;;;;;;;1.39;67.27;96470.13;6096296;23;20194;-79
2022/03/20 04:28:12;;;;;;;26.73;18.97;;;;;;;1.34;67.45;96459.28;6096162;23;20179;-80
2022/03/20 04:30:37;;;;;;;29.27;18.47;;;;;;;1.39;67.65;96465.84;6096169;23;20183;-79
2022/03/20 04:33:04;;;;;;;25.83;19.20;;;;;;;1.33;67.77;96466.16;6095600;23;20162;-79
2022/03/20 04:35:29;;;;;;;23.83;17.80;;;;;;;1.32;68.01;96454.22;6119753;23;20635;-79
2022/03/20 04:37:55;;;;;;;25.00;18.20;;;;;;;1.32;68.36;96461.06;6096463;23;20163;-78
2022/03/20 04:40:21;;;;;;;28.77;18.60;;;;;;;1.29;68.54;96449.25;6096410;23;20155;-78
2022/03/20 04:42:47;;;;;;;28.97;19.23;;;;;;;1.32;68.38;96454.22;6070823;23;20608;-78
2022/03/20 04:45:13;;;;;;;29.03;19.23;;;;;;;1.31;68.81;96457.69;6095658;23;20188;-80
2022/03/20 04:58:40;;;;;;;31.10;19.77;;;;;;;1.39;69.43;96452.22;6096543;23;20206;-79
2022/03/20 05:01:06;;;;;;;27.67;19.83;;;;;;;1.35;69.20;96466.06;6095617;23;20159;-81
2022/03/20 05:03:32;;;;;;;29.10;20.13;;;;;;;1.29;69.57;96469.72;6119900;23;20152;-79
2022/03/20 05:05:57;;;;;;;26.73;19.53;;;;;;;1.26;69.94;96479.28;6096248;23;20163;-78
2022/03/20 05:08:22;;;;;;;29.03;19.83;;;;;;;1.23;70.08;96479.41;6071371;23;20262;-79
2022/03/20 05:13:32;;;;;;;30.83;19.87;;;;;;;1.13;70.66;96484.91;6095411;23;20147;-78
2022/03/20 05:15:57;;;;;;;28.50;19.47;;;;;;;1.08;70.95;96491.97;6071257;23;20227;-79
2022/03/20 05:18:22;;;;;;;30.17;20.13;;;;;;;1.19;70.68;96488.13;6071473;23;20163;-80
2022/03/20 05:20:49;;;;;;;27.50;19.67;;;;;;;1.19;70.44;96491.50;6071262;23;20156;-78
2022/03/20 05:23:14;;;;;;;26.70;19.23;;;;;;;1.24;70.37;96492.16;6094989;23;20212;-78
2022/03/20 05:25:40;;;;;;;32.90;20.27;;;;;;;1.29;70.33;96487.63;6071223;23;20184;-79
2022/03/20 05:28:05;;;;;;;29.90;19.60;;;;;;;1.23;70.75;96487.06;6071438;23;20675;-79
2022/03/20 05:30:31;;;;;;;30.73;21.17;;;;;;;1.26;70.46;96494.63;6071586;23;20164;-78
2022/03/20 05:32:56;;;;;;;31.10;21.03;;;;;;;1.38;70.39;96496.63;6119439;23;20156;-79
2022/03/20 05:35:22;;;;;;;30.10;19.90;;;;;;;1.45;70.54;96502.31;6120041;23;20177;-79
2022/03/20 05:37:48;;;;;;;30.40;21.30;;;;;;;1.49;70.51;96493.59;6094191;23;20168;-78
2022/03/20 05:40:14;;;;;;;28.50;20.50;;;;;;;1.61;70.21;96495.59;6071580;23;20161;-78
2022/03/20 05:42:40;;;;;;;31.47;21.23;;;;;;;1.49;70.23;96501.25;6070759;23;20235;-79
2022/03/20 05:45:06;;;;;;;29.87;21.03;;;;;;;1.57;70.26;96494.91;6095545;23;20173;-78
2022/03/20 05:47:32;;;;;;;31.17;21.53;;;;;;;1.70;70.14;96487.50;6071033;23;20310;-78
2022/03/20 05:50:01;;;;;;;27.33;20.50;;;;;;;1.72;70.35;96488.25;6095329;23;20160;-78
2022/03/20 05:52:27;;;;;;;29.30;20.47;;;;;;;1.77;69.87;96496.56;6070228;23;20560;-79
2022/03/20 05:54:52;;;;;;;30.20;20.87;;;;;;;1.81;70.14;96495.50;6071288;23;20650;-79
2022/03/20 06:00:03;;;;;;;31.90;21.57;;;;;;;1.87;69.72;96496.97;6095474;23;20152;-78
2022/03/20 06:02:29;;;;;;;31.60;21.73;;;;;;;1.96;69.63;96502.50;6095692;23;20165;-78
2022/03/20 06:04:54;;;;;;;32.07;20.80;;;;;;;2.04;69.60;96503.88;6095293;23;20173;-78
2022/03/20 06:07:19;;;;;;;34.80;21.50;;;;;;;2.12;68.93;96501.75;6095204;23;20243;-78
2022/03/20 06:09:45;;;;;;;32.67;21.97;;;;;;;2.22;68.80;96503.81;6072004;23;20164;-78
2022/03/20 06:12:10;;;;;;;31.53;22.30;;;;;;;2.25;68.97;96510.53;6070608;23;20163;-78
2022/03/20 06:14:35;;;;;;;31.57;22.13;;;;;;;2.42;68.59;96514.84;6071038;23;20184;-79
2022/03/20 06:17:01;;;;;;;32.93;22.23;;;;;;;2.39;68.10;96520.13;6119392;23;20160;-78
2022/03/20 06:19:27;;;;;;;34.43;22.67;;;;;;;2.47;68.24;96523.97;6095387;23;20666;-78
2022/03/20 06:21:52;;;;;;;30.40;22.50;;;;;;;2.58;67.78;96527.75;6094737;23;20163;-78
2022/03/20 06:24:17;;;;;;;31.17;21.50;;;;;;;2.67;67.75;96527.28;6095585;23;20183;-79
2022/03/20 06:26:42;;;;;;;35.40;22.43;;;;;;;2.70;67.66;96522.00;6071504;23;20189;-79
2022/03/20 06:29:09;;;;;;;40.07;23.37;;;;;;;2.74;70.71;96536.31;6119690;23;20626;-80
2022/03/20 06:31:34;;;;;;;35.67;23.83;;;;;;;2.74;73.07;96549.16;6094480;23;20387;-79
2022/03/20 06:34:00;;;;;;;36.93;23.93;;;;;;;2.71;73.05;96541.63;6096423;23;20200;-79
2022/03/20 06:36:26;;;;;;;37.13;24.07;;;;;;;2.70;72.01;96548.47;6123787;23;20187;-79
2022/03/20 06:38:52;;;;;;;39.87;24.23;;;;;;;2.82;72.56;96554.72;6102601;23;20153;-79
2022/03/20 06:41:18;;;;;;;34.90;25.40;;;;;;;2.87;72.10;96563.03;6102121;23;20150;-78
2022/03/20 06:43:44;;;;;;;35.03;24.07;;;;;;;2.93;71.62;96560.19;6074758;23;20160;-80
2022/03/20 06:46:09;;;;;;;34.60;23.03;;;;;;;3.05;71.62;96562.13;6094463;23;20141;-80
2022/03/20 06:48:34;;;;;;;34.67;23.73;;;;;;;3.12;71.33;96563.47;6095136;23;20516;-80
2022/03/20 06:51:00;;;;;;;37.83;24.53;;;;;;;3.36;70.17;96563.97;6070586;23;20169;-80
2022/03/20 06:53:26;;;;;;;38.33;24.37;;;;;;;3.61;70.12;96565.25;6071525;23;20250;-80
2022/03/20 06:55:51;;;;;;;34.40;24.77;;;;;;;3.58;68.68;96571.38;6096361;23;20192;-80
2022/03/20 06:58:17;;;;;;;34.37;23.10;;;;;;;3.70;68.85;96565.59;6097620;23;20200;-80
2022/03/20 07:00:43;;;;;;;37.10;24.53;;;;;;;3.91;68.49;96568.78;6098542;23;20514;-80
2022/03/20 07:03:09;;;;;;;38.07;24.93;;;;;;;3.93;68.13;96577.25;6075334;23;20239;-80
2022/03/20 07:05:35;;;;;;;35.07;23.60;;;;;;;4.19;67.25;96582.72;6076436;23;20177;-80
2022/03/20 07:08:00;;;;;;;35.33;23.10;;;;;;;4.29;66.88;96588.19;6077244;23;20292;-80
2022/03/20 07:10:26;;;;;;;32.97;23.20;;;;;;;4.33;65.42;96584.53;6077376;23;20634;-80
2022/03/20 07:13:48;;;;;;;32.40;23.13;;;;;;;4.39;65.94;96582.44;6099688;23;20611;-80
2022/03/20 07:15:38;;;;;;;31.53;22.10;;;;;;;4.47;64.83;96584.59;6099335;23;20184;-81
2022/03/20 07:18:03;;;;;;;35.17;24.17;;;;;;;4.68;65.49;96577.41;6101081;23;20157;-81
2022/03/20 07:20:28;;;;;;;34.83;24.33;;;;;;;4.72;63.76;96584.88;6101913;23;20646;-81
2022/03/20 07:22:53;;;;;;;36.70;23.97;;;;;;;4.84;63.61;96580.78;6101008;23;20161;-80
2022/03/20 07:30:47;;;;;;;35.07;24.33;;;;;;;5.03;62.89;96596.00;6103493;23;20616;-79
2022/03/20 07:33:12;;;;;;;32.07;22.80;;;;;;;4.98;63.30;96598.03;6077794;23;20187;-81
2022/03/20 07:35:37;;;;;;;34.60;23.07;;;;;;;4.92;63.28;96606.09;6078423;23;20177;-80
2022/03/20 07:38:03;;;;;;;31.43;23.30;;;;;;;4.78;63.31;96612.84;6077141;23;20769;-80
2022/03/20 07:40:28;;;;;;;31.00;23.33;;;;;;;4.71;63.89;96619.25;6101561;23;20165;-79
2022/03/20 07:42:56;;;;;;;37.07;23.83;;;;;;;4.91;63.12;96612.97;6098262;23;20170;-80
2022/03/20 07:45:22;;;;;;;37.40;25.23;;;;;;;5.26;62.83;96612.72;6075574;23;20255;-79
2022/03/20 07:47:47;;;;;;;54.40;31.20;;;;;;;5.24;62.02;96617.97;6077869;23;20206;-80
2022/03/20 07:50:13;;;;;;;37.80;23.47;;;;;;;5.29;61.38;96621.06;6076665;23;20156;-80
2022/03/20 07:52:38;;;;;;;37.03;25.00;;;;;;;5.69;61.90;96619.56;6075978;23;20186;-79
2022/03/20 07:55:04;;;;;;;32.57;23.33;;;;;;;5.68;60.88;96619.66;6100161;23;20240;-79
2022/03/20 07:57:30;;;;;;;33.43;22.27;;;;;;;5.77;60.66;96615.72;6100945;23;20149;-80
2022/03/20 07:59:56;;;;;;;32.83;23.33;;;;;;;6.07;60.19;96615.63;6101294;23;20149;-80
2022/03/20 08:02:21;;;;;;;32.60;22.77;;;;;;;6.37;59.55;96612.91;6075237;23;20553;-81
2022/03/20 08:04:46;;;;;;;30.97;22.13;;;;;;;6.43;58.77;96623.66;6120927;23;20287;-83
2022/03/20 08:07:12;;;;;;;34.20;21.57;;;;;;;6.69;58.24;96618.63;6097927;23;20188;-80
2022/03/20 08:09:38;;;;;;;33.60;23.17;;;;;;;6.96;56.83;96622.00;6102256;23;20156;-78
2022/03/20 08:12:06;;;;;;;28.03;21.50;;;;;;;7.12;56.51;96628.75;6104553;23;20164;-80
2022/03/20 08:14:31;;;;;;;29.50;21.63;;;;;;;7.23;55.38;96634.06;6105705;23;20180;-80
2022/03/20 08:16:56;;;;;;;30.80;20.60;;;;;;;7.43;54.02;96622.44;6082206;23;20251;-80
2022/03/20 08:19:23;;;;;;;28.93;20.93;;;;;;;7.28;53.91;96634.59;6081935;23;20165;-79
2022/03/20 08:21:49;;;;;;;28.53;20.93;;;;;;;7.52;53.04;96624.41;6104999;23;20217;-79
2022/03/20 08:24:15;;;;;;;28.13;21.27;;;;;;;7.53;53.15;96623.47;6105997;23;20235;-79
2022/03/20 08:26:40;;;;;;;29.63;20.27;;;;;;;7.43;53.51;96631.00;6105277;23;20217;-80
2022/03/20 08:29:10;;;;;;;27.13;20.87;;;;;;;7.60;53.54;96628.13;6106799;23;20160;-80
2022/03/20 08:31:36;;;;;;;30.53;22.63;;;;;;;7.76;53.27;96625.31;6103550;23;20168;-81
2022/03/20 08:34:01;;;;;;;28.70;21.27;;;;;;;7.87;53.53;96625.44;6104033;23;20185;-80
2022/03/20 08:36:27;;;;;;;29.23;20.67;;;;;;;7.85;53.61;96629.03;6080439;23;20165;-80
2022/03/20 08:38:52;;;;;;;30.60;21.73;;;;;;;7.99;53.14;96634.09;6104988;23;20607;-80
2022/03/20 08:41:18;;;;;;;29.07;21.17;;;;;;;7.92;53.33;96635.44;6080136;23;20168;-80
2022/03/20 08:43:43;;;;;;;28.33;21.03;;;;;;;8.08;54.20;96648.16;6103505;23;20179;-80
2022/03/20 08:46:08;;;;;;;35.37;21.83;;;;;;;8.31;54.13;96644.00;6080507;23;20164;-80
2022/03/20 08:48:34;;;;;;;31.37;22.57;;;;;;;8.70;53.39;96648.97;6103420;23;20188;-79
2022/03/20 08:50:59;;;;;;;31.93;23.43;;;;;;;8.80;54.01;96646.56;6103248;23;20169;-80
2022/03/20 08:53:25;;;;;;;31.10;22.60;;;;;;;9.02;53.21;96653.63;6077816;23;20243;-79
2022/03/20 08:55:51;;;;;;;35.43;24.07;;;;;;;9.23;52.76;96652.03;6077910;23;20227;-80
2022/03/20 08:58:17;;;;;;;40.30;25.33;;;;;;;9.26;52.91;96654.41;6077096;23;20161;-75
2022/03/20 09:00:42;;;;;;;29.60;22.30;;;;;;;9.03;51.95;96663.03;6104261;23;20172;-80
2022/03/20 09:03:10;;;;;;;33.73;21.93;;;;;;;9.15;52.63;96672.50;6102217;23;20160;-80
2022/03/20 09:05:35;;;;;;;36.87;22.93;;;;;;;9.18;52.53;96667.09;6103108;23;20203;-79
2022/03/20 09:08:01;;;;;;;34.17;22.20;;;;;;;9.13;52.51;96678.75;6103864;23;20239;-80
2022/03/20 09:10:26;;;;;;;32.30;22.37;;;;;;;9.08;52.74;96684.25;6104487;23;20180;-80
2022/03/20 09:12:55;;;;;;;32.93;21.93;;;;;;;9.43;52.42;96686.88;6078430;23;20184;-79
2022/03/20 09:15:21;;;;;;;34.40;21.97;;;;;;;9.21;52.74;96694.56;6080431;23;20193;-80
2022/03/20 09:20:32;;;;;;;27.43;20.47;;;;;;;9.01;55.38;96686.47;6101058;23;20168;-80
2022/03/20 09:22:57;;;;;;;30.47;20.37;;;;;;;9.34;55.70;96693.56;6100071;23;20180;-80
2022/03/20 09:25:23;;;;;;;29.77;19.97;;;;;;;9.68;55.41;96701.44;6078064;23;20628;-80
2022/03/20 09:27:49;;;;;;;33.60;20.40;;;;;;;9.60;55.65;96704.59;6122247;23;20184;-79
2022/03/20 09:30:15;;;;;;;27.23;19.80;;;;;;;9.78;54.58;96701.59;6099505;23;20157;-80
2022/03/20 09:32:41;;;;;;;27.87;20.63;;;;;;;9.62;56.09;96702.72;6124354;23;20160;-80
2022/03/20 09:35:08;;;;;;;27.43;19.87;;;;;;;9.85;56.40;96707.97;6074578;23;20180;-79
2022/03/20 09:37:34;;;;;;;29.20;20.13;;;;;;;10.10;55.78;96719.94;6099560;23;20226;-79
2022/03/20 09:39:59;;;;;;;30.57;20.73;;;;;;;10.17;56.04;96710.75;6098337;23;20669;-80
2022/03/20 09:42:24;;;;;;;27.13;20.63;;;;;;;10.10;56.48;96709.56;6098474;23;20555;-80
2022/03/20 09:44:50;;;;;;;29.10;19.07;;;;;;;10.17;56.42;96719.34;6095779;23;20181;-80
2022/03/20 09:47:19;;;;;;;27.37;19.53;;;;;;;9.93;57.30;96714.25;6098346;23;20177;-80
2022/03/20 09:49:48;;;;;;;28.13;19.90;;;;;;;10.31;56.33;96720.09;6099939;23;20532;-81
2022/03/20 09:52:13;;;;;;;30.60;19.20;;;;;;;10.62;56.09;96722.00;6096683;23;20156;-81
2022/03/20 09:54:39;;;;;;;27.00;18.87;;;;;;;10.46;55.79;96717.16;6097832;23;20219;-81
2022/03/20 09:57:06;;;;;;;30.03;19.33;;;;;;;10.29;56.47;96714.19;6100536;23;20136;-82
2022/03/20 09:59:32;;;;;;;28.33;18.73;;;;;;;10.46;56.88;96724.94;6100352;23;20156;-80
2022/03/20 10:02:05;;;;;;;25.27;17.47;;;;;;;10.70;56.09;96737.00;6099850;23;20164;-81
2022/03/20 10:04:34;;;;;;;24.90;18.00;;;;;;;10.54;56.89;96720.94;6076244;23;20181;-80
2022/03/20 10:07:00;;;;;;;23.67;18.37;;;;;;;10.74;55.77;96726.22;6099798;23;20323;-81
2022/03/20 10:09:26;;;;;;;27.13;18.47;;;;;;;10.90;56.19;96732.84;6100762;23;20603;-81
2022/03/20 10:11:54;;;;;;;25.40;18.40;;;;;;;10.64;55.65;96722.69;6076516;23;20184;-80
2022/03/20 10:14:23;;;;;;;23.07;18.67;;;;;;;10.34;57.01;96725.06;6102816;23;20217;-80
2022/03/20 10:16:49;;;;;;;29.97;20.27;;;;;;;10.50;56.07;96725.53;6102375;23;20156;-80
2022/03/20 10:19:23;;;;;;;28.73;18.90;;;;;;;10.40;57.25;96712.44;6080540;23;20204;-81
2022/03/20 10:21:53;;;;;;;25.77;18.93;;;;;;;10.78;56.02;96724.22;6102990;23;20615;-81
2022/03/20 10:24:21;;;;;;;22.90;18.03;;;;;;;10.60;57.23;96710.06;6075124;23;20286;-81
2022/03/20 10:26:52;;;;;;;26.37;18.07;;;;;;;10.35;56.96;96706.78;6127365;23;20270;-81
2022/03/20 10:29:18;;;;;;;26.60;17.43;;;;;;;10.58;56.52;96711.94;6080012;23;20153;-81
2022/03/20 10:31:49;;;;;;;31.60;18.00;;;;;;;10.91;56.06;96711.09;6102069;23;20184;-81
2022/03/20 10:34:14;;;;;;;25.93;17.43;;;;;;;11.08;56.30;96710.56;6127811;23;20172;-80
2022/03/20 10:36:41;;;;;;;27.13;19.13;;;;;;;10.95;55.82;96715.09;6076637;23;20472;-81
2022/03/20 10:39:11;;;;;;;25.67;16.53;;;;;;;10.93;55.41;96712.63;6101490;23;20167;-80
2022/03/20 10:41:39;;;;;;;30.13;18.13;;;;;;;11.05;55.17;96710.84;6076837;23;20164;-81
2022/03/20 10:44:16;;;;;;;28.10;17.70;;;;;;;10.77;55.16;96704.38;6078270;23;20181;-81
2022/03/20 10:46:43;;;;;;;27.67;17.43;;;;;;;11.16;54.16;96704.78;6077945;23;20153;-81
2022/03/20 10:49:11;;;;;;;30.27;16.97;;;;;;;10.86;54.92;96710.63;6103821;23;20149;-81
2022/03/20 10:51:39;;;;;;;21.50;16.80;;;;;;;11.51;53.62;96701.91;6078815;23;20235;-78
2022/03/20 10:54:08;;;;;;;24.63;16.23;;;;;;;11.84;53.92;96695.75;6127536;23;20693;-79
2022/03/20 10:56:35;;;;;;;27.17;15.73;;;;;;;12.10;52.12;96699.63;6077662;23;20207;-82
2022/03/20 10:59:11;;;;;;;23.27;16.43;;;;;;;12.36;52.38;96705.19;6125520;23;20588;-82
2022/03/20 11:01:38;;;;;;;19.03;14.77;;;;;;;12.28;51.36;96702.44;6100995;23;20148;-79
2022/03/20 11:04:07;;;;;;;20.87;13.43;;;;;;;12.15;51.86;96722.66;6100488;23;20212;-78
2022/03/20 11:06:33;;;;;;;20.43;15.77;;;;;;;12.05;52.07;96706.97;6104807;23;20240;-78
2022/03/20 11:09:02;;;;;;;21.10;14.57;;;;;;;12.36;51.08;96713.00;6079746;23;20223;-80
2022/03/20 11:11:29;;;;;;;21.13;13.67;;;;;;;12.47;50.63;96706.91;6086765;23;20167;-80
2022/03/20 11:13:55;;;;;;;21.47;14.90;;;;;;;12.61;49.79;96718.75;6081791;23;20568;-81
2022/03/20 11:16:24;;;;;;;24.00;14.97;;;;;;;12.90;49.49;96711.03;6075151;23;20157;-80
2022/03/20 11:18:52;;;;;;;22.27;14.50;;;;;;;13.20;49.30;96718.81;6106058;23;20156;-81
2022/03/20 11:21:20;;;;;;;19.27;15.30;;;;;;;13.15;47.87;96720.94;6107524;23;20434;-80
2022/03/20 11:23:45;;;;;;;19.57;13.70;;;;;;;13.74;46.52;96714.00;6111109;23;20163;-80
2022/03/20 11:26:12;;;;;;;22.17;14.20;;;;;;;13.72;46.74;96711.53;6094015;23;20149;-79
2022/03/20 11:28:48;;;;;;;21.20;13.90;;;;;;;14.03;45.71;96714.78;6108899;23;20683;-79
2022/03/20 11:31:14;;;;;;;28.47;14.67;;;;;;;13.78;46.21;96717.97;6078569;23;20159;-81
2022/03/20 11:33:42;;;;;;;24.40;14.60;;;;;;;13.98;45.56;96718.81;6104230;23;20156;-82
2022/03/20 11:36:07;;;;;;;21.47;14.60;;;;;;;13.96;46.56;96713.72;6127776;23;20176;-80
2022/03/20 11:38:35;;;;;;;18.63;14.57;;;;;;;13.92;46.46;96711.53;6102882;23;20175;-80
2022/03/20 11:41:07;;;;;;;20.33;13.63;;;;;;;13.85;45.98;96712.06;6105107;23;20221;-80
2022/03/20 11:43:33;;;;;;;19.13;13.30;;;;;;;13.95;45.34;96712.06;6108411;23;20542;-80
2022/03/20 11:46:21;;;;;;;19.57;13.23;;;;;;;14.29;46.24;96711.56;6083717;23;20195;-80
2022/03/20 11:49:17;;;;;;;19.03;13.60;;;;;;;14.10;46.07;96712.44;6108492;23;20474;-80
2022/03/20 11:52:01;;;;;;;24.27;13.77;;;;;;;14.26;45.47;96704.03;6106619;23;20182;-80
2022/03/20 11:54:39;;;;;;;18.50;13.20;;;;;;;14.86;43.96;96710.56;6083520;23;20187;-81
2022/03/20 11:57:23;;;;;;;20.27;13.83;;;;;;;14.57;44.85;96713.28;6107112;23;20145;-80